Stations météo

réclame
Mon MeteoGroup
Torino Venaria, Italie (16060): Température de l'air & dewpoint: 13.11.2017 20:00:00 - 19.11.2017 20:00:00 (CET)Torino Venaria, Italie (16060): Vitesse du vent: 13.11.2017 20:00:00 - 19.11.2017 20:00:00 (CET)Torino Venaria, Italie (16060): Direction du vent: 13.11.2017 20:00:00 - 19.11.2017 20:00:00 (CET)Torino Venaria, Italie (16060): reduced air pressure: 13.11.2017 20:00:00 - 19.11.2017 20:00:00 (CET)Torino Venaria, Italie (16060): Quantités de précipitations: 13.11.2017 20:00:00 - 19.11.2017 20:00:00 (CET)
Date & Time tt [°C] td [°C] ff [km/h] ff [knt] dd ppp [hPa] rr [mm]
19.11.2017 20:00:00 1,3 -3,4 5 3 WNW 1013,7 -
19.11.2017 19:00:00 3,0 -2,4 4 2 W 1012,8 -
19.11.2017 18:00:00 4,7 -3,0 5 3 WNW 1011,9 -
19.11.2017 17:00:00 9,2 -0,5 0 0 N 1010,7 -
19.11.2017 16:00:00 13,6 1,5 2 1 W 1009,9 -
19.11.2017 15:00:00 13,6 2,1 4 2 SSE 1009,4 -
19.11.2017 14:00:00 12,9 2,6 4 2 SSE 1009,8 -
19.11.2017 13:00:00 10,3 1,3 8 4 ENE 1010,8 -
19.11.2017 12:00:00 9,0 0,8 9 5 E 1011,5 -
19.11.2017 11:00:00 7,6 1,8 2 1 NW 1011,5 -
19.11.2017 10:00:00 3,5 3,1 2 1 ENE 1011,7 -
19.11.2017 09:00:00 -1,0 -2,6 5 3 W 1012,3 -
19.11.2017 08:00:00 -3,3 -6,0 5 3 WNW 1012,9 -
19.11.2017 07:00:00 -2,8 -5,2 4 2 WSW 1013,7 0,0
19.11.2017 06:00:00 -3,1 -5,3 4 2 NW 1014,0 -
19.11.2017 05:00:00 -2,3 -4,5 2 1 WNW 1013,8 -
19.11.2017 04:00:00 -3,3 -5,7 4 2 WNW 1014,3 -
19.11.2017 03:00:00 -3,6 -6,4 5 3 W 1015,0 -
19.11.2017 02:00:00 -3,2 -6,0 4 2 WNW 1015,2 -
19.11.2017 01:00:00 -3,1 -6,4 4 2 NW 1015,4 0,0
19.11.2017 00:00:00 -2,4 -5,8 4 2 NW 1015,8 -
18.11.2017 23:00:00 -1,7 -5,3 5 3 WNW 1016,2 -
18.11.2017 22:00:00 -1,0 -5,8 2 1 NNW 1016,4 -
18.11.2017 21:00:00 0,8 -3,4 4 2 WNW 1016,3 -
18.11.2017 20:00:00 1,9 -3,3 4 2 NNW 1016,3 -
18.11.2017 19:00:00 3,2 -2,8 4 2 WNW 1016,2 0,0
18.11.2017 18:00:00 5,2 -2,5 4 2 W 1015,9 -
18.11.2017 17:00:00 9,5 -1,1 4 2 SW 1015,0 -
18.11.2017 16:00:00 13,2 0,8 4 2 WSW 1014,6 -
18.11.2017 15:00:00 14,0 0,8 4 2 S 1014,7 -
18.11.2017 14:00:00 13,7 0,6 4 2 S 1014,9 -
18.11.2017 13:00:00 13,3 0,9 4 2 S 1015,4 0,0
18.11.2017 12:00:00 12,2 0,5 2 1 SSE 1016,1 -
18.11.2017 11:00:00 9,2 2,2 2 1 E 1017,1 -
18.11.2017 10:00:00 3,9 3,6 2 1 WNW 1017,6 -
18.11.2017 09:00:00 -1,0 -2,6 4 2 NW 1018,4 -
18.11.2017 08:00:00 -3,7 -5,9 4 2 WNW 1018,4 -
18.11.2017 07:00:00 -3,5 -6,0 4 2 WNW 1018,1 0,0
18.11.2017 06:00:00 -3,7 -6,5 4 2 WNW 1018,2 -
18.11.2017 05:00:00 -3,2 -6,0 4 2 WNW 1018,1 -
18.11.2017 04:00:00 -3,2 -6,2 2 1 WSW 1018,4 -
18.11.2017 03:00:00 -3,1 -6,3 4 2 NW 1018,8 -
18.11.2017 02:00:00 -2,2 -4,9 4 2 WNW 1019,4 -
18.11.2017 01:00:00 -2,6 -6,0 4 2 WNW 1019,1 0,0
18.11.2017 00:00:00 -2,1 -5,6 4 2 NW 1019,1 -
17.11.2017 23:00:00 -1,4 -5,1 5 3 WNW 1018,8 -
17.11.2017 22:00:00 -0,8 -5,8 5 3 NW 1018,7 -
17.11.2017 21:00:00 1,0 -3,7 8 4 NW 1017,9 -
17.11.2017 20:00:00 0,4 -5,9 5 3 NW 1017,8 -
17.11.2017 19:00:00 2,8 -4,5 4 2 NW 1017,3 0,0
17.11.2017 18:00:00 5,2 -4,0 4 2 W 1016,3 -
17.11.2017 17:00:00 11,5 -2,1 4 2 NE 1015,3 -
17.11.2017 16:00:00 12,9 -2,3 4 2 ENE 1014,9 -
17.11.2017 15:00:00 13,8 -1,1 2 1 E 1014,8 -
17.11.2017 14:00:00 13,3 -0,8 4 2 SSW 1015,3 -
17.11.2017 13:00:00 12,6 -0,1 5 3 S 1016,0 0,0
17.11.2017 12:00:00 11,0 0,9 2 1 SSW 1016,7 -
17.11.2017 11:00:00 9,0 1,8 2 1 W 1017,6 -
17.11.2017 10:00:00 4,3 3,7 2 1 NW 1018,4 -
17.11.2017 09:00:00 -0,9 -2,7 2 1 NW 1018,9 -
17.11.2017 08:00:00 -4,7 -8,0 4 2 WNW 1018,7 -
17.11.2017 07:00:00 -4,0 -6,7 4 2 WNW 1018,6 0,0
17.11.2017 06:00:00 -3,6 -6,6 4 2 NW 1018,7 -
17.11.2017 05:00:00 -3,6 -6,9 4 2 NW 1018,6 -
17.11.2017 04:00:00 -3,6 -7,1 5 3 WNW 1018,8 -
17.11.2017 03:00:00 -3,2 -6,7 2 1 NW 1018,9 -
17.11.2017 02:00:00 -2,8 -6,3 4 2 WNW 1019,2 -
17.11.2017 01:00:00 -2,2 -6,1 5 3 WNW 1019,6 0,0
17.11.2017 00:00:00 -1,1 -5,0 2 1 WNW 1019,7 -
16.11.2017 23:00:00 -1,1 -5,6 4 2 NW 1019,7 -
16.11.2017 22:00:00 -0,6 -5,3 8 4 WNW 1019,4 -
16.11.2017 21:00:00 0,4 -5,5 4 2 NW 1019,1 -
16.11.2017 20:00:00 1,5 -5,5 5 3 NW 1018,6 -
16.11.2017 19:00:00 3,9 -3,5 4 2 W 1017,8 0,0
16.11.2017 18:00:00 4,7 -5,2 4 2 WNW 1017,3 -
16.11.2017 17:00:00 10,8 -2,4 2 1 E 1016,3 -
16.11.2017 16:00:00 12,1 -3,0 4 2 NNE 1016,3 -
16.11.2017 15:00:00 13,4 -3,1 4 2 SE 1016,7 -
16.11.2017 14:00:00 12,9 -3,5 4 2 SSE 1017,3 -
16.11.2017 13:00:00 12,2 -2,6 4 2 SSE 1018,0 0,0
16.11.2017 12:00:00 10,7 -2,8 5 3 E 1018,9 -
16.11.2017 11:00:00 8,1 -1,3 0 0 N 1019,8 -
16.11.2017 10:00:00 5,0 2,0 2 1 SSE 1020,4 -
16.11.2017 09:00:00 -1,1 -2,9 5 3 NW 1021,3 -
16.11.2017 08:00:00 -4,8 -8,1 4 2 WNW 1021,5 -
16.11.2017 07:00:00 -4,1 -7,2 2 1 W 1021,3 0,0
16.11.2017 06:00:00 -4,3 -7,6 2 1 WNW 1021,3 -
16.11.2017 05:00:00 -4,2 -7,7 5 3 WNW 1021,7 -
16.11.2017 04:00:00 -3,2 -6,5 4 2 NW 1021,8 -
16.11.2017 03:00:00 -2,7 -5,7 5 3 NW 1021,9 -
16.11.2017 02:00:00 -3,2 -6,7 0 0 N 1021,9 -
16.11.2017 01:00:00 -3,0 -6,7 4 2 WNW 1022,2 0,0
16.11.2017 00:00:00 -2,4 -5,9 5 3 WNW 1021,9 -
15.11.2017 23:00:00 -2,3 -6,2 5 3 NW 1021,7 -
15.11.2017 22:00:00 -2,1 -7,1 4 2 NW 1021,5 -
15.11.2017 21:00:00 -0,6 -6,2 0 0 N 1021,1 -
15.11.2017 20:00:00 0,4 -5,1 4 2 W 1020,7 -
15.11.2017 19:00:00 2,2 -4,6 5 3 NW 1020,2 0,0
15.11.2017 18:00:00 3,9 -3,7 5 3 SSW 1019,8 -
15.11.2017 17:00:00 8,0 -2,5 8 4 SSW 1018,9 -
15.11.2017 16:00:00 10,6 -2,6 8 4 SW 1018,4 -
15.11.2017 15:00:00 11,2 -3,1 8 4 SW 1018,5 -
15.11.2017 14:00:00 11,2 -2,7 8 4 SW 1018,7 -
15.11.2017 13:00:00 11,3 -3,4 5 3 S 1019,4 0,0
15.11.2017 12:00:00 10,4 -3,4 2 1 S 1020,2 -
15.11.2017 11:00:00 8,4 -2,7 2 1 SW 1021,1 -
15.11.2017 10:00:00 5,0 -1,3 2 1 W 1021,4 -
15.11.2017 09:00:00 -1,0 -4,1 2 1 NW 1021,7 -
15.11.2017 08:00:00 -4,6 -8,4 2 1 WNW 1021,7 -
15.11.2017 07:00:00 -5,0 -9,3 5 3 WNW 1021,1 0,0
15.11.2017 06:00:00 -4,2 -8,2 2 1 WSW 1020,3 -
15.11.2017 05:00:00 -3,9 -8,6 4 2 NNW 1020,1 -
15.11.2017 04:00:00 -3,9 -8,6 5 3 NW 1020,1 -
15.11.2017 03:00:00 -3,1 -7,7 4 2 WNW 1020,1 -
15.11.2017 02:00:00 -3,3 -8,4 4 2 W 1019,8 -
15.11.2017 01:00:00 -3,2 -8,7 5 3 NW 1019,6 0,0
15.11.2017 00:00:00 -1,9 -7,9 4 2 W 1019,0 -
14.11.2017 23:00:00 -1,6 -7,8 4 2 W 1019,0 -
14.11.2017 22:00:00 -0,2 -6,7 4 2 WNW 1019,1 -
14.11.2017 21:00:00 -0,4 -7,5 4 2 W 1018,6 -
14.11.2017 20:00:00 1,9 -6,5 4 2 NNW 1017,4 -
14.11.2017 19:00:00 3,5 -6,9 2 1 WNW 1016,3 0,0
14.11.2017 18:00:00 5,9 -7,8 5 3 WNW 1015,2 -
14.11.2017 17:00:00 13,2 -9,4 4 2 SSE 1014,5 -
14.11.2017 16:00:00 15,5 -7,5 2 1 SSW 1014,5 -
14.11.2017 15:00:00 15,3 -9,0 4 2 SE 1014,6 -
14.11.2017 14:00:00 15,4 -8,9 4 2 S 1015,0 -
14.11.2017 13:00:00 13,9 -8,8 8 4 WSW 1015,5 0,0
14.11.2017 12:00:00 12,0 -8,6 9 5 W 1016,2 -
14.11.2017 11:00:00 10,4 -5,3 4 2 W 1016,9 -
14.11.2017 10:00:00 4,7 -2,3 4 2 WNW 1017,3 -
14.11.2017 09:00:00 -0,9 -5,9 4 2 NW 1017,4 -
14.11.2017 08:00:00 -2,0 -6,3 4 2 W 1016,3 -
14.11.2017 07:00:00 -3,0 -7,8 8 4 WNW 1015,3 0,0
14.11.2017 06:00:00 -4,2 -8,7 2 1 WNW 1014,5 -
14.11.2017 05:00:00 -5,0 -10,1 4 2 NW 1013,2 -
14.11.2017 04:00:00 -3,7 -8,4 2 1 N 1012,0 -
14.11.2017 03:00:00 -4,5 -9,6 2 1 WNW 1011,5 -
14.11.2017 02:00:00 -3,1 -8,6 4 2 NW 1011,1 -
14.11.2017 01:00:00 -1,6 -8,0 4 2 N 1010,4 0,0
14.11.2017 00:00:00 -2,1 -7,9 4 2 W 1010,3 -
13.11.2017 23:00:00 -1,5 -7,3 5 3 NW 1009,5 -
13.11.2017 22:00:00 -0,9 -8,2 5 3 WNW 1008,4 -
13.11.2017 21:00:00 0,6 -7,5 2 1 WSW 1007,5 -
13.11.2017 20:00:00 3,1 -7,8 4 2 NW 1006,4 -

tt = Température de l'air
td = dewpoint
ff = Vitesse du vent
dd = Direction du vent
ppp = reduced air pressure
rr = Quantités de précipitations

stations d'obs. à proximité